Tiempo atmosférico en la estación meteorológica de Fuente El Sol, Valladolid (755 m.)



Fecha
DESCASC
Temp. máxima en grados centígrados (hora)
DESCASC
Temp. mínima en grados centígrados (hora)
DESCASC
Temp. media en grados centígrados
DESCASC
Racha de viento máxima en m/sg (hora)
DESCASC
Velocidad máxima media en intervalos de 10 minutos(hora)
DESCASC
Precipitaciones diarias en mm
DESCASC
Precipitaciones de 00:00 a 06:00 en mm
DESCASC
Precipitaciones de 06:00 a 12:00 en mm
DESCASC
Precipitaciones de 12:00 a 18:00 en mm
DESCASC
Precipitaciones de 18:00 a 24:00 en mm
DESCASC
22-08-2019 32.8 (18:10) 11.8 (07:30) 22.3 7.5 (14:20) 4.72 (14:40) 0 0 0 0 0
21-08-2019 30.9 (16:40) 13.3 (07:30) 22.1 12.5 (18:20) 8.61 (18:20) 0 0 0 0 0
20-08-2019 27.7 (18:40) 13 (07:40) 20.4 10.83 (20:40) 6.94 (20:40) 0 0 0 0 0
19-08-2019 25.9 (16:00) 15.2 (07:40) 20.5 9.44 (20:40) 5.83 (00:20) 0 0 0 0 0
18-08-2019 30.2 (18:20) 14.6 (00:00) 22.4 12.22 (18:40) 8.06 (18:10) 0 0 0 0 0
17-08-2019 34.9 (18:50) 14.5 (00:00) 24.7 14.72 (19:10) 7.5 (17:00) 0 0 0 0 0
16-08-2019 34.1 (17:40) 13.7 (00:00) 23.9 11.11 (18:00) 6.11 (17:20) 0 0 0 0 0
15-08-2019 33.4 (19:00) 13.5 (00:00) 23.5 9.17 (00:40) 6.39 (00:40) 0 0 0 0 0
14-08-2019 32.4 (18:00) 8.7 (00:00) 20.6 7.5 (16:40) 4.72 (16:40) 0 0 0 0 0
13-08-2019 28.2 (18:10) 6.3 (00:00) 17.3 7.5 (19:40) 4.44 (01:50) 0 0 0 0 0
12-08-2019 23.8 (17:10) 6.4 (00:00) 15.1 9.17 (00:40) 6.11 (22:50) 0 0 0 0 0
11-08-2019 24.6 (17:40) 12.6 (00:00) 18.6 11.11 (17:20) 8.06 (22:40) 0.6 0.4 0.2 0 0
10-08-2019 28.8 (17:50) 10.9 (00:00) 19.8 9.44 (17:40) 5.83 (22:00) 0 0 0 0 0
09-08-2019 24.7 (11:00) 15.6 (00:00) 20.2 16.67 (16:40) 11.39 (09:00) 1.6 0 0 0.8 0.8
08-08-2019 32.1 (16:40) 17.9 (00:00) 25 15.28 (20:40) 11.11 (19:20) 0 0 0 0 0
07-08-2019 27.2 (15:20) 16.7 (00:00) 22 12.22 (16:40) 7.5 (18:20) 0 0 0 0 0
06-08-2019 33.2 (16:40) 15.9 (00:00) 24.6 9.72 (17:10) 6.67 (21:50) 0 0 0 0 0
05-08-2019 34 (18:20) 14 (00:00) 24 10.28 (15:50) 6.39 (16:50) 0 0 0 0 0
04-08-2019 34 (18:10) 16.5 (00:00) 25.3 10.28 (17:50) 6.39 (17:50) 0 0 0 0 0
03-08-2019 34.9 (16:50) 13.6 (00:00) 24.3 12.5 (17:00) 5.83 (17:40) 0 0 0 0 0
02-08-2019 34.8 (17:40) 11.2 (00:00) 23 7.5 (16:40) 4.17 (19:30) 0 0 0 0 0
01-08-2019 33.1 (17:50) 12.6 (00:00) 22.8 9.72 (18:00) 5.56 (16:50) 0 0 0 0 0
31-07-2019 31.4 (17:50) 7.7 (00:00) 19.5 8.89 (17:40) 6.11 (17:50) 0 0 0 0 0
30-07-2019 27 (17:20) 7.8 (00:00) 17.4 8.33 (18:40) 5 (20:50) 0 0 0 0 0
29-07-2019 27.7 (17:30) 13.6 (00:00) 20.7 13.89 (18:10) 8.06 (20:10) 0 0 0 0 0
28-07-2019 29.7 (18:30) 8.5 (00:00) 19.1 8.61 (16:50) 5 (00:30) 0 0 0 0 0
27-07-2019 25.8 (17:40) 14.1 (00:00) 19.9 15.28 (15:30) 8.33 (18:10) 0 0 0 0 0
26-07-2019 27.5 (16:40) 16.6 (00:00) 22.1 11.11 (16:10) 7.5 (18:50) 0 0 0 0 0

Gráficas

Temp. máximas Temp. mínimas Temp. medias Precipitaciones Rachas de viento máximas Velocidades máximas media en intervalos de 10 minutos

Datos horarios

Fecha y hora oficial Temperatura (ºC) Velocidad del viento (km/h) Dirección del viento Racha (km/h) Dirección de racha Precipitación (mm) Presión (hPa) Tendencia (hPa) Humedad (%)
2019-08-24 23:00:00 23.6 5 Nordeste 8 Este 0 -- -- 31
2019-08-24 22:00:00 25 8 Nordeste 11 Nordeste 0 -- -- 30
2019-08-24 21:00:00 29.5 8 Norte 14 Norte 0 -- -- 23
2019-08-24 20:00:00 32.6 8 Norte 15 Oeste 0 -- -- 20
2019-08-24 19:00:00 33.4 9 Norte 20 Oeste 0 -- -- 19
2019-08-24 18:00:00 34.9 8 Oeste 24 Oeste 0 -- -- 18
2019-08-24 17:00:00 34.9 10 Oeste 23 Noroeste 0 -- -- 18
2019-08-24 16:00:00 34 9 Noroeste 26 Oeste 0 -- -- 20
2019-08-24 15:00:00 32.7 9 Oeste 27 Oeste 0 -- -- 21
2019-08-24 14:00:00 32.5 8 Sudoeste 19 Sudoeste 0 -- -- 24
2019-08-24 13:00:00 30.4 10 Sudoeste 19 Sudoeste 0 -- -- 27
2019-08-24 12:00:00 28.7 12 Sudoeste 21 Sudoeste 0 -- -- 31
2019-08-24 11:00:00 26.7 9 Sudoeste 15 Sudoeste 0 -- -- 35
2019-08-24 10:00:00 25.9 2 Sudoeste 9 Oeste 0 -- -- 34
2019-08-24 09:00:00 20.1 4 Oeste 14 Oeste 0 -- -- 43
2019-08-24 08:00:00 16.2 11 Sur 14 Sur 0 -- -- 51
2019-08-24 07:00:00 13.7 6 Sudeste 10 Este 0 -- -- 52
2019-08-24 06:00:00 12.9 4 Sudoeste 9 Sur 0 -- -- 49
2019-08-24 05:00:00 14.1 4 Sur 10 Oeste 0 -- -- 47
2019-08-24 04:00:00 15.4 4 Oeste 18 Noroeste 0 -- -- 43
2019-08-24 03:00:00 18.4 9 Sur 20 Sudoeste 0 -- -- 39
2019-08-24 02:00:00 19.7 10 Sudeste 16 Sudeste 0 -- -- 35
2019-08-24 01:00:00 20.6 7 Sudeste 18 Sudeste 0 -- -- 31
2019-08-24 00:00:00 19.1 5 Sudeste 8 Sudeste 0 -- -- 33
2019-08-23 23:00:00 22.1 2 Nordeste 11 Norte 0 -- -- 28
2019-08-23 22:00:00 23.9 9 Noroeste 12 Norte 0 -- -- 25
2019-08-23 21:00:00 26.9 9 Noroeste 12 Noroeste 0 -- -- 23
2019-08-23 20:00:00 31.8 8 Noroeste 19 Oeste 0 -- -- 18
2019-08-23 19:00:00 32.9 12 Noroeste 22 Noroeste 0 -- -- 17
2019-08-23 18:00:00 34.1 10 Noroeste 20 Oeste 0 -- -- 17
2019-08-23 17:00:00 33.8 7 Noroeste 35 Noroeste 0 -- -- 17
2019-08-23 16:00:00 32.4 5 Norte 26 Oeste 0 -- -- 18
2019-08-23 15:00:00 32.8 7 Noroeste 20 Sur 0 -- -- 18
2019-08-23 14:00:00 31.2 8 Sudoeste 18 Sudoeste 0 -- -- 20
2019-08-23 13:00:00 29.8 10 Sudoeste 18 Sudoeste 0 -- -- 23
2019-08-23 12:00:00 27.7 8 Sudoeste 15 Sur 0 -- -- 27
2019-08-23 11:00:00 23.8 6 Sudoeste 10 Sur 0 -- -- 30
2019-08-23 10:00:00 21.3 4 Sudeste 10 Nordeste 0 -- -- 28
2019-08-23 09:00:00 16.1 4 Nordeste 9 Nordeste 0 -- -- 33
2019-08-23 08:00:00 10.1 0 Calma 4 Oeste 0 -- -- 42
2019-08-23 07:00:00 9.6 4 Noroeste 9 Oeste 0 -- -- 41
2019-08-23 06:00:00 10.4 4 Este 7 Este 0 -- -- 45
2019-08-23 05:00:00 11.3 4 Sur 6 Sudeste 0 -- -- 36
2019-08-23 04:00:00 11.7 0 Calma 5 Oeste 0 -- -- 34
2019-08-23 03:00:00 12.1 0 Calma 5 Sudoeste 0 -- -- 33
2019-08-23 02:00:00 14.3 0 Calma 9 Sudeste 0 -- -- 28
2019-08-23 01:00:00 16.1 5 Sudeste 8 Este 0 -- -- 24
2019-08-23 00:00:00 17.5 5 Nordeste 9 Norte 0 -- -- 26
2019-08-22 23:00:00 21.8 9 Norte 12 Norte 0 -- -- 17
2019-08-22 22:00:00 21.6 8 Norte 16 Norte 0 -- -- 18
2019-08-22 21:00:00 24.8 12 Noroeste 19 Noroeste 0 -- -- 17
2019-08-22 20:00:00 30.1 12 Norte 18 Noroeste 0 -- -- 14
2019-08-22 19:00:00 32.4 6 Noroeste 22 Noroeste 0 -- -- 14
2019-08-22 18:00:00 31.5 6 Norte 22 Noroeste 0 -- -- 14
2019-08-22 17:00:00 30.9 10 Nordeste 27 Nordeste 0 -- -- 15
2019-08-22 16:00:00 30.6 13 Norte 27 Noroeste 0 -- -- 17
2019-08-22 15:00:00 30.1 15 Noroeste 27 Norte 0 -- -- 21
2019-08-22 14:00:00 29 8 Nordeste 24 Nordeste 0 -- -- 30
2019-08-22 13:00:00 26.7 8 Norte 17 Nordeste 0 -- -- 40
2019-08-22 12:00:00 24.3 11 Norte 18 Nordeste 0 -- -- 49
2019-08-22 11:00:00 21.8 10 Norte 16 Norte 0 -- -- 57
2019-08-22 10:00:00 18.2 9 Norte 13 Norte 0 -- -- 68
2019-08-22 09:00:00 14.7 9 Norte 13 Norte 0 -- -- 79
2019-08-22 08:00:00 13 8 Nordeste 12 Nordeste 0 -- -- 86
2019-08-22 07:00:00 12.9 6 Norte 11 Norte 0 -- -- 84
2019-08-22 06:00:00 12.4 4 Norte 15 Nordeste 0 -- -- 77
2019-08-22 05:00:00 15.2 10 Nordeste 18 Norte 0 -- -- 69
2019-08-22 04:00:00 15.4 9 Norte 14 Norte 0 -- -- 66
2019-08-22 03:00:00 17 7 Nordeste 14 Norte 0 -- -- 59
2019-08-22 02:00:00 19.2 11 Nordeste 16 Norte 0 -- -- 52
2019-08-22 01:00:00 20.9 12 Nordeste 20 Nordeste 0 -- -- 46
2019-08-22 00:00:00 21.6 13 Nordeste 21 Nordeste 0 -- -- 42
2019-08-21 23:00:00 20.6 2 Este 9 Norte 0 -- -- 49
2019-08-21 22:00:00 21.9 7 Nordeste 11 Nordeste 0 -- -- 44
2019-08-21 21:00:00 26.4 8 Oeste 15 Oeste 0 -- -- 36
2019-08-21 20:00:00 28.2 10 Sudoeste 20 Sudoeste 0 -- -- 34
2019-08-21 19:00:00 28.8 19 Sur 45 Sur 0 -- -- 34
2019-08-21 18:00:00 30.3 10 Norte 28 Noroeste 0 -- -- 30
2019-08-21 17:00:00 30 17 Noroeste 32 Noroeste 0 -- -- 32
2019-08-21 16:00:00 29.6 14 Norte 27 Nordeste 0 -- -- 34
2019-08-21 15:00:00 28.8 11 Noroeste 23 Norte 0 -- -- 38
2019-08-21 14:00:00 27.3 10 Nordeste 21 Nordeste 0 -- -- 42
2019-08-21 13:00:00 25 9 Nordeste 20 Nordeste 0 -- -- 48
2019-08-21 12:00:00 24.1 12 Nordeste 23 Nordeste 0 -- -- 51
2019-08-21 11:00:00 21.9 12 Nordeste 20 Nordeste 0 -- -- 54
2019-08-21 10:00:00 17.2 14 Nordeste 19 Nordeste 0 -- -- 64
2019-08-21 09:00:00 15 10 Norte 15 Norte 0 -- -- 70
2019-08-21 08:00:00 13.8 8 Norte 18 Norte 0 -- -- 75
2019-08-21 07:00:00 13.9 6 Norte 10 Norte 0 -- -- 73
2019-08-21 06:00:00 14.3 6 Norte 13 Nordeste 0 -- -- 71
2019-08-21 05:00:00 14.5 8 Norte 14 Norte 0 -- -- 70
2019-08-21 04:00:00 14.6 7 Norte 14 Norte 0 -- -- 70
2019-08-21 03:00:00 14 6 Noroeste 9 Norte 0 -- -- 71
2019-08-21 02:00:00 16.2 6 Norte 16 Norte 0 -- -- 64
2019-08-21 01:00:00 16.9 13 Norte 21 Norte 0 -- -- 61
2019-08-21 00:00:00 17.5 12 Norte 23 Norte 0 -- -- 57
2019-08-20 23:00:00 19.2 17 Norte 30 Norte 0 -- -- 50
2019-08-20 22:00:00 20.9 22 Norte 31 Norte 0 -- -- 46
2019-08-20 21:00:00 23.2 22 Norte 39 Norte 0 -- -- 40
2019-08-20 20:00:00 25.9 21 Norte 31 Norte 0 -- -- 34
2019-08-20 19:00:00 27.1 18 Norte 26 Norte 0 -- -- 31
2019-08-20 18:00:00 27.2 12 Norte 29 Norte 0 -- -- 30
2019-08-20 17:00:00 27.3 11 Norte 33 Nordeste 0 -- -- 30
2019-08-20 16:00:00 26.2 9 Norte 28 Nordeste 0 -- -- 34
2019-08-20 15:00:00 25.5 12 Nordeste 26 Nordeste 0 -- -- 38
2019-08-20 14:00:00 24.3 15 Norte 36 Norte 0 -- -- 44
2019-08-20 13:00:00 22.4 12 Norte 25 Norte 0 -- -- 50
2019-08-20 12:00:00 20.8 8 Norte 24 Norte 0 -- -- 56
2019-08-20 11:00:00 18.7 13 Nordeste 26 Nordeste 0 -- -- 62
2019-08-20 10:00:00 17 14 Norte 23 Norte 0 -- -- 68
2019-08-20 09:00:00 15.3 10 Norte 15 Norte 0 -- -- 75
2019-08-20 08:00:00 13.7 9 Norte 16 Norte 0 -- -- 82
2019-08-20 07:00:00 13.7 15 Norte 22 Norte 0 -- -- 81
2019-08-20 06:00:00 14.8 12 Norte 17 Noroeste 0 -- -- 77
2019-08-20 05:00:00 15.2 10 Noroeste 20 Noroeste 0 -- -- 73
2019-08-20 04:00:00 15.3 10 Noroeste 26 Norte 0 -- -- 73
2019-08-20 03:00:00 15.6 15 Norte 23 Nordeste 0 -- -- 71
2019-08-20 02:00:00 16.1 16 Norte 27 Norte 0 -- -- 68
2019-08-20 01:00:00 16.7 18 Norte 27 Norte 0 -- -- 66
2019-08-20 00:00:00 17.8 18 Norte 26 Norte 0 -- -- 63
2019-08-19 23:00:00 19.3 19 Norte 28 Norte 0 -- -- 59
2019-08-19 22:00:00 20.6 12 Norte 26 Norte 0 -- -- 55
2019-08-19 21:00:00 21.4 18 Norte 34 Norte 0 -- -- 53
2019-08-19 20:00:00 23.1 18 Norte 27 Norte 0 -- -- 49
2019-08-19 19:00:00 24.5 8 Oeste 17 Noroeste 0 -- -- 42
2019-08-19 18:00:00 24.1 4 Oeste 19 Noroeste 0 -- -- 44
2019-08-19 17:00:00 24.3 5 Noroeste 23 Noroeste 0 -- -- 44
2019-08-19 16:00:00 25.9 12 Noroeste 21 Noroeste 0 -- -- 41
2019-08-19 15:00:00 24.6 12 Noroeste 22 Noroeste 0 -- -- 46
2019-08-19 14:00:00 23 13 Noroeste 23 Noroeste 0 -- -- 49
2019-08-19 13:00:00 20.8 10 Norte 18 Norte 0 -- -- 56
2019-08-19 12:00:00 20.7 11 Norte 21 Norte 0 -- -- 56
2019-08-19 11:00:00 18.8 13 Norte 19 Norte 0 -- -- 63
2019-08-19 10:00:00 16.7 12 Norte 18 Norte 0 -- -- 72
2019-08-19 09:00:00 15.9 13 Norte 19 Norte 0 -- -- 75
2019-08-19 08:00:00 15.3 13 Norte 19 Norte 0 -- -- 79
2019-08-19 07:00:00 15.4 13 Norte 20 Norte 0 -- -- 80
2019-08-19 06:00:00 15.7 10 Norte 15 Noroeste 0 -- -- 80
2019-08-19 05:00:00 16 10 Norte 13 Noroeste 0 -- -- 78
2019-08-19 04:00:00 16.6 10 Norte 17 Norte 0 -- -- 75
2019-08-19 03:00:00 17.9 10 Norte 22 Norte 0 -- -- 70
2019-08-19 02:00:00 19.1 15 Noroeste 24 Noroeste 0 -- -- 64
2019-08-19 01:00:00 20.8 18 Noroeste 31 Noroeste 0 -- -- 50
2019-08-19 00:00:00 22.7 15 Oeste 25 Oeste 0 -- -- 51
2019-08-18 23:00:00 22.2 5 Oeste 9 Oeste 0 -- -- 53
2019-08-18 22:00:00 23 10 Noroeste 23 Noroeste 0 -- -- 51
2019-08-18 21:00:00 25.9 15 Oeste 32 Oeste 0 -- -- 45
2019-08-18 20:00:00 28 22 Oeste 39 Oeste 0 -- -- 42
2019-08-18 19:00:00 28.4 23 Oeste 44 Sudoeste 0 -- -- 39
2019-08-18 18:00:00 29.9 27 Sudoeste 42 Sudoeste 0 -- -- 31
2019-08-18 17:00:00 29.9 24 Sudoeste 42 Oeste 0 -- -- 29
2019-08-18 16:00:00 29 24 Sudoeste 42 Sudoeste 0 -- -- 32
2019-08-18 15:00:00 29.1 22 Oeste 34 Oeste 0 -- -- 29
2019-08-18 14:00:00 27.4 14 Sudoeste 27 Sudoeste 0 -- -- 35
2019-08-18 13:00:00 24.6 19 Oeste 30 Oeste 0 -- -- 44
2019-08-18 12:00:00 24.1 15 Oeste 24 Sudoeste 0 -- -- 46
2019-08-18 11:00:00 22.8 12 Sudoeste 25 Oeste 0 -- -- 55
2019-08-18 10:00:00 20 13 Sudoeste 20 Sudoeste 0 -- -- 64
2019-08-18 09:00:00 17.7 14 Sudoeste 19 Sudoeste 0 -- -- 73
2019-08-18 08:00:00 15.2 10 Sudoeste 14 Sudoeste 0 -- -- 74
2019-08-18 07:00:00 14.8 12 Sudoeste 16 Sudoeste 0 -- -- 71
2019-08-18 06:00:00 15.6 7 Sudoeste 15 Sur 0 -- -- 67
2019-08-18 05:00:00 17 13 Sur 16 Sur 0 -- -- 57
2019-08-18 04:00:00 18.2 14 Sur 18 Sur 0 -- -- 52
2019-08-18 03:00:00 17.9 11 Sudoeste 16 Sudoeste 0 -- -- 48
2019-08-18 02:00:00 19.3 12 Sudoeste 17 Sudoeste 0 -- -- 41
2019-08-18 01:00:00 19.1 12 Sudoeste 13 Sudoeste 0 -- -- 40
2019-08-18 00:00:00 20.7 7 Sur 9 Sur 0 -- -- 37
2019-08-17 23:00:00 22.8 7 Sudoeste 12 Oeste 0 -- -- 33
2019-08-17 22:00:00 25.1 12 Oeste 17 Oeste 0 -- -- 29
2019-08-17 21:00:00 30.6 14 Oeste 28 Oeste 0 -- -- 21
2019-08-17 20:00:00 33.8 19 Oeste 53 Oeste 0 -- -- 18
2019-08-17 19:00:00 34.4 17 Oeste 38 Sudoeste 0 -- -- 18
2019-08-17 18:00:00 34.4 20 Sudoeste 42 Sudoeste 0 -- -- 18
2019-08-17 17:00:00 34.3 27 Oeste 36 Sudoeste 0 -- -- 17
2019-08-17 16:00:00 33.3 21 Sudoeste 37 Sudoeste 0 -- -- 21
2019-08-17 15:00:00 32.3 13 Sudoeste 25 Sudoeste 0 -- -- 24
2019-08-17 14:00:00 31.3 6 Oeste 19 Noroeste 0 -- -- 28
2019-08-17 13:00:00 29.5 5 Oeste 14 Noroeste 0 -- -- 32
2019-08-17 12:00:00 27.9 7 Oeste 14 Oeste 0 -- -- 36
2019-08-17 11:00:00 26.4 4 Noroeste 9 Noroeste 0 -- -- 39
2019-08-17 10:00:00 24.2 2 Noroeste 13 Oeste 0 -- -- 44
2019-08-17 09:00:00 20 4 Sudoeste 9 Sudoeste 0 -- -- 52
2019-08-17 08:00:00 16 5 Sudoeste 12 Sur 0 -- -- 60
2019-08-17 07:00:00 15.1 10 Sudoeste 18 Sudoeste 0 -- -- 62
2019-08-17 06:00:00 17.4 15 Sudoeste 19 Sudoeste 0 -- -- 56
2019-08-17 05:00:00 18 15 Sudoeste 21 Sur 0 -- -- 54
2019-08-17 04:00:00 18.2 13 Sudoeste 17 Sudoeste 0 -- -- 53
2019-08-17 03:00:00 18 11 Sur 14 Sudoeste 0 -- -- 49
2019-08-17 02:00:00 17.8 7 Sudoeste 13 Sudoeste 0 -- -- 43
2019-08-17 01:00:00 20.1 13 Sudoeste 16 Sudoeste 0 -- -- 37
2019-08-17 00:00:00 20.7 7 Sudoeste 14 Oeste 0 -- -- 35
2019-08-16 23:00:00 23 11 Oeste 14 Oeste 0 -- -- 31
2019-08-16 22:00:00 24.7 13 Oeste 16 Oeste 0 -- -- 25
2019-08-16 21:00:00 30 13 Oeste 27 Oeste 0 -- -- 20
2019-08-16 20:00:00 33.3 17 Oeste 28 Oeste 0 -- -- 19
2019-08-16 19:00:00 34 16 Oeste 32 Sudoeste 0 -- -- 21
2019-08-16 18:00:00 33.8 21 Sudoeste 40 Sudoeste 0 -- -- 21
2019-08-16 17:00:00 33.6 19 Oeste 34 Oeste 0 -- -- 23
2019-08-16 16:00:00 32.7 21 Sudoeste 38 Sudoeste 0 -- -- 25
2019-08-16 15:00:00 31.4 14 Oeste 28 Oeste 0 -- -- 29
2019-08-16 14:00:00 30.1 11 Oeste 19 Noroeste 0 -- -- 34
2019-08-16 13:00:00 27.8 11 Oeste 21 Noroeste 0 -- -- 38
2019-08-16 12:00:00 26.4 7 Oeste 15 Oeste 0 -- -- 41
2019-08-16 11:00:00 24.3 6 Oeste 12 Oeste 0 -- -- 45
2019-08-16 10:00:00 21.8 5 Sudoeste 10 Oeste 0 -- -- 51
2019-08-16 09:00:00 19 4 Sur 7 Sudoeste 0 -- -- 57
2019-08-16 08:00:00 14.7 6 Sudoeste 8 Sudoeste 0 -- -- 67
2019-08-16 07:00:00 14.4 3 Sudoeste 10 Oeste 0 -- -- 68
2019-08-16 06:00:00 15 7 Oeste 16 Sur 0 -- -- 66
2019-08-16 05:00:00 16.2 4 Nordeste 8 Nordeste 0 -- -- 63
2019-08-16 04:00:00 18 7 Norte 9 Norte 0 -- -- 59
2019-08-16 03:00:00 19 8 Norte 14 Norte 0 -- -- 54
2019-08-16 02:00:00 20 10 Noroeste 21 Oeste 0 -- -- 53
2019-08-16 01:00:00 20.5 4 Este 19 Este 0 -- -- 52
2019-08-16 00:00:00 23 15 Este 22 Este 0 -- -- 46
2019-08-15 23:00:00 23.5 6 Nordeste 9 Norte 0 -- -- 39
2019-08-15 22:00:00 26.7 8 Norte 12 Noroeste 0 -- -- 34
2019-08-15 21:00:00 28.9 11 Noroeste 23 Oeste 0 -- -- 30
2019-08-15 20:00:00 31.8 9 Oeste 21 Noroeste 0 -- -- 26
2019-08-15 19:00:00 33.4 7 Oeste 23 Noroeste 0 -- -- 24
2019-08-15 18:00:00 32.6 9 Oeste 22 Oeste 0 -- -- 26
2019-08-15 17:00:00 31.5 12 Sudoeste 18 Noroeste 0 -- -- 26
2019-08-15 16:00:00 31.3 10 Noroeste 22 Noroeste 0 -- -- 28
2019-08-15 15:00:00 30.4 12 Oeste 21 Oeste 0 -- -- 30
2019-08-15 14:00:00 28.8 8 Norte 19 Norte 0 -- -- 29
2019-08-15 13:00:00 27.7 6 Norte 16 Norte 0 -- -- 37
2019-08-15 12:00:00 25.2 8 Norte 14 Noroeste 0 -- -- 47
2019-08-15 11:00:00 23.3 5 Norte 13 Norte 0 -- -- 51
2019-08-15 10:00:00 20.5 5 Norte 12 Norte 0 -- -- 61
2019-08-15 09:00:00 19.2 6 Noroeste 12 Noroeste 0 -- -- 64
2019-08-15 08:00:00 14.9 9 Oeste 11 Sudoeste 0 -- -- 77
2019-08-15 07:00:00 14.8 10 Sudoeste 12 Sudoeste 0 -- -- 78
2019-08-15 06:00:00 15.7 6 Oeste 12 Sudoeste 0 -- -- 75
2019-08-15 05:00:00 17.1 10 Sudoeste 16 Sudoeste 0 -- -- 71
2019-08-15 04:00:00 18.3 14 Sudoeste 16 Sudoeste 0 -- -- 67
2019-08-15 03:00:00 19 9 Oeste 14 Noroeste 0 -- -- 65
2019-08-15 02:00:00 21.2 12 Noroeste 26 Oeste 0 -- -- 60
2019-08-15 01:00:00 22.8 21 Oeste 33 Oeste 0 -- -- 56
2019-08-15 00:00:00 22.6 15 Sudoeste 18 Sudoeste 0 -- -- 45
2019-08-14 23:00:00 22.4 4 Sudeste 4 Sur 0 -- -- 36
2019-08-14 22:00:00 24.3 5 Norte 9 Norte 0 -- -- 33
2019-08-14 21:00:00 28.4 8 Noroeste 16 Norte 0 -- -- 28
2019-08-14 20:00:00 31.4 6 Noroeste 21 Oeste 0 -- -- 23
2019-08-14 19:00:00 31.6 14 Oeste 22 Oeste 0 -- -- 22
2019-08-14 18:00:00 32.4 7 Oeste 22 Oeste 0 -- -- 21
2019-08-14 17:00:00 31.6 15 Oeste 27 Oeste 0 -- -- 22
2019-08-14 16:00:00 30.6 14 Oeste 25 Oeste 0 -- -- 23
2019-08-14 15:00:00 29.9 7 Oeste 25 Oeste 0 -- -- 22
2019-08-14 14:00:00 28.7 8 Sudoeste 18 Sudoeste 0 -- -- 22
2019-08-14 13:00:00 26.7 8 Oeste 18 Oeste 0 -- -- 23
2019-08-14 12:00:00 26.4 10 Oeste 16 Noroeste 0 -- -- 24
2019-08-14 11:00:00 23.7 7 Oeste 12 Oeste 0 -- -- 27
2019-08-14 10:00:00 20.2 6 Sudoeste 10 Sur 0 -- -- 33
2019-08-14 09:00:00 16.9 4 Sur 8 Sur 0 -- -- 39
2019-08-14 08:00:00 10.7 8 Sur 9 Sur 0 -- -- 52
2019-08-14 07:00:00 8.8 2 Sudeste 4 Norte 0 -- -- 60
2019-08-14 06:00:00 9.7 0 Calma 4 Sudoeste 0 -- -- 51
2019-08-14 05:00:00 10.5 0 Calma 15 Oeste 0 -- -- 52
2019-08-14 04:00:00 13.7 7 Sur 10 Sudeste 0 -- -- 40
2019-08-14 03:00:00 13.8 6 Sur 10 Sur 0 -- -- 40
2019-08-14 02:00:00 13.9 8 Sur 9 Sur 0 -- -- 42
2019-08-14 01:00:00 15.4 5 Sudeste 9 Sudeste 0 -- -- 38
2019-08-14 00:00:00 15.3 0 Calma 8 Nordeste 0 -- -- 42
2019-08-13 23:00:00 17.6 6 Norte 9 Noroeste 0 -- -- 35
2019-08-13 22:00:00 19.3 9 Noroeste 11 Noroeste 0 -- -- 32
2019-08-13 21:00:00 23.9 9 Noroeste 16 Noroeste 0 -- -- 26
2019-08-13 20:00:00 27 11 Noroeste 27 Noroeste 0 -- -- 22
2019-08-13 19:00:00 27.1 5 Norte 23 Norte 0 -- -- 22
2019-08-13 18:00:00 28 11 Noroeste 26 Noroeste 0 -- -- 21
2019-08-13 17:00:00 27.2 9 Noroeste 25 Noroeste 0 -- -- 22
2019-08-13 16:00:00 25.9 10 Oeste 21 Oeste 0 -- -- 23
2019-08-13 15:00:00 25.5 9 Noroeste 20 Noroeste 0 -- -- 24
2019-08-13 14:00:00 23.8 5 Nordeste 15 Norte 0 -- -- 28
2019-08-13 13:00:00 22.3 7 Noroeste 15 Nordeste 0 -- -- 34
2019-08-13 12:00:00 19.9 5 Nordeste 14 Nordeste 0 -- -- 41
2019-08-13 11:00:00 17.6 7 Norte 12 Norte 0 -- -- 50
2019-08-13 10:00:00 15 5 Nordeste 12 Norte 0 -- -- 57
2019-08-13 09:00:00 12.6 6 Norte 9 Norte 0 -- -- 66
2019-08-13 08:00:00 8 4 Sudoeste 6 Sudoeste 0 -- -- 81
2019-08-13 07:00:00 6.5 3 Sudoeste 5 Sudoeste 0 -- -- 83
2019-08-13 06:00:00 8 0 Calma 4 Norte 0 -- -- 79
2019-08-13 05:00:00 9.1 0 Calma 10 Nordeste 0 -- -- 75
2019-08-13 04:00:00 11.9 7 Nordeste 22 Nordeste 0 -- -- 68
2019-08-13 03:00:00 13.3 14 Nordeste 22 Nordeste 0 -- -- 63
2019-08-13 02:00:00 15.1 16 Nordeste 25 Nordeste 0 -- -- 57
2019-08-13 01:00:00 16.5 13 Nordeste 21 Nordeste 0 -- -- 52
2019-08-13 00:00:00 17.3 12 Norte 25 Nordeste 0 -- -- 42
2019-08-12 23:00:00 19.2 18 Nordeste 30 Nordeste 0 -- -- 37
2019-08-12 22:00:00 20.5 18 Nordeste 26 Nordeste 0 -- -- 33
2019-08-12 21:00:00 21.6 10 Norte 19 Norte 0 -- -- 31
2019-08-12 20:00:00 22.4 11 Norte 23 Norte 0 -- -- 27
2019-08-12 19:00:00 23.7 15 Norte 23 Noroeste 0 -- -- 26
2019-08-12 18:00:00 23.8 8 Noroeste 30 Noroeste 0 -- -- 24
2019-08-12 17:00:00 23.1 14 Norte 26 Norte 0 -- -- 24
2019-08-12 16:00:00 22.5 16 Norte 31 Noroeste 0 -- -- 29
2019-08-12 15:00:00 21.6 11 Norte 29 Noroeste 0 -- -- 32
2019-08-12 14:00:00 19.8 12 Norte 26 Norte 0 -- -- 39
2019-08-12 13:00:00 19.2 10 Norte 23 Norte 0 -- -- 41
2019-08-12 12:00:00 17.8 9 Norte 26 Nordeste 0 -- -- 47
2019-08-12 11:00:00 16.4 11 Norte 19 Norte 0 -- -- 54
2019-08-12 10:00:00 15.2 6 Norte 12 Norte 0 -- -- 64
2019-08-12 09:00:00 13.1 8 Noroeste 15 Oeste 0 -- -- 71
2019-08-12 08:00:00 7.5 3 Sudoeste 8 Oeste 0 -- -- 84
2019-08-12 07:00:00 6.9 6 Sudoeste 8 Sudoeste 0 -- -- 87
2019-08-12 06:00:00 8 0 Calma 9 Oeste 0 -- -- 84
2019-08-12 05:00:00 8.4 10 Oeste 11 Oeste 0 -- -- 82
2019-08-12 04:00:00 9 6 Oeste 10 Noroeste 0 -- -- 79
2019-08-12 03:00:00 10.3 9 Noroeste 13 Noroeste 0 -- -- 78
2019-08-12 02:00:00 12.5 11 Noroeste 23 Noroeste 0 -- -- 68
2019-08-12 01:00:00 14.1 17 Noroeste 33 Noroeste 0 -- -- 61
2019-08-12 00:00:00 15 19 Noroeste 30 Noroeste 0 -- -- 54
2019-08-11 23:00:00 16.5 21 Noroeste 39 Noroeste 0 -- -- 47
2019-08-11 22:00:00 17.4 13 Oeste 27 Oeste 0 -- -- 36
2019-08-11 21:00:00 20.9 22 Oeste 36 Sudoeste 0 -- -- 32
2019-08-11 20:00:00 23 22 Oeste 35 Oeste 0 -- -- 27
2019-08-11 19:00:00 23.7 23 Oeste 38 Oeste 0 -- -- 28
2019-08-11 18:00:00 24 21 Oeste 40 Oeste 0 -- -- 29
2019-08-11 17:00:00 23.7 26 Oeste 39 Sudoeste 0 -- -- 29
2019-08-11 16:00:00 23.5 23 Oeste 33 Oeste 0 -- -- 36
2019-08-11 15:00:00 21.8 15 Oeste 32 Oeste 0 -- -- 46
2019-08-11 14:00:00 21.2 18 Oeste 32 Oeste 0 -- -- 51
2019-08-11 13:00:00 20.6 17 Oeste 31 Sudoeste 0 -- -- 59
2019-08-11 12:00:00 20.6 14 Oeste 24 Oeste 0 -- -- 58
2019-08-11 11:00:00 18.3 15 Oeste 24 Oeste 0 -- -- 74
2019-08-11 10:00:00 17.4 12 Oeste 15 Oeste 0 -- -- 82
2019-08-11 09:00:00 16.6 6 Oeste 8 Oeste 0 -- -- 84
2019-08-11 08:00:00 13.5 2 Oeste 12 Este 0.2 -- -- 93
2019-08-11 07:00:00 13 6 Este 9 Nordeste 0 -- -- 93
2019-08-11 06:00:00 14.8 7 Nordeste 22 Noroeste 0 -- -- 89
2019-08-11 05:00:00 15.4 16 Oeste 22 Oeste 0.4 -- -- 84
2019-08-11 04:00:00 16.2 12 Noroeste 36 Oeste 0 -- -- 73
2019-08-11 03:00:00 19 12 Oeste 19 Oeste 0 -- -- 49
2019-08-11 02:00:00 19.7 9 Oeste 13 Sudoeste 0 -- -- 43
2019-08-11 01:00:00 20.5 10 Oeste 18 Noroeste 0 -- -- 40
2019-08-11 00:00:00 21.1 12 Noroeste 20 Noroeste 0 -- -- 38
2019-08-10 23:00:00 22.3 11 Noroeste 27 Oeste 0 -- -- 34
2019-08-10 22:00:00 23.4 21 Noroeste 29 Noroeste 0 -- -- 32
2019-08-10 21:00:00 24.5 12 Noroeste 23 Oeste 0 -- -- 32
2019-08-10 20:00:00 25.9 16 Oeste 28 Oeste 0 -- -- 32
2019-08-10 19:00:00 27.6 17 Oeste 28 Oeste 0 -- -- 29
2019-08-10 18:00:00 28 15 Sudoeste 34 Sudoeste 0 -- -- 27
2019-08-10 17:00:00 27.3 16 Sudoeste 32 Sudoeste 0 -- -- 26
2019-08-10 16:00:00 26.6 8 Sudoeste 17 Sur 0 -- -- 26
2019-08-10 15:00:00 25.2 9 Sudoeste 16 Sur 0 -- -- 36
2019-08-10 14:00:00 25.1 3 Noroeste 16 Sudoeste 0 -- -- 41
2019-08-10 13:00:00 22.7 4 Nordeste 15 Sudeste 0 -- -- 48
2019-08-10 12:00:00 20.7 6 Norte 10 Noroeste 0 -- -- 52
2019-08-10 11:00:00 20.3 3 Sudoeste 13 Oeste 0 -- -- 58
2019-08-10 10:00:00 17.7 10 Oeste 15 Sudoeste 0 -- -- 72
2019-08-10 09:00:00 14.8 7 Sudoeste 10 Sudoeste 0 -- -- 87
2019-08-10 08:00:00 12.8 3 Sur 12 Sur 0 -- -- 92
2019-08-10 07:00:00 12 4 Sur 9 Sur 0 -- -- 92
2019-08-10 06:00:00 11.3 6 Sur 11 Sur 0 -- -- 93
2019-08-10 05:00:00 11.5 8 Sur 11 Sur 0 -- -- 92
2019-08-10 04:00:00 11.8 11 Sudoeste 14 Sudoeste 0 -- -- 93
2019-08-10 03:00:00 11.9 5 Sudoeste 8 Sudoeste 0 -- -- 93
2019-08-10 02:00:00 13.5 8 Sudoeste 16 Sudoeste 0 -- -- 92
2019-08-10 01:00:00 14.9 14 Sudoeste 18 Sudoeste 0 -- -- 93
2019-08-10 00:00:00 15.6 12 Sudoeste 19 Sur 0 -- -- 90
2019-08-09 23:00:00 16.9 13 Sur 25 Sudoeste 0 -- -- 87
2019-08-09 22:00:00 17.3 14 Sur 25 Sur 0 -- -- 88
2019-08-09 21:00:00 18.5 17 Sur 35 Sur 0 -- -- 83
2019-08-09 20:00:00 18.8 26 Sur 39 Sur 0 -- -- 78
2019-08-09 19:00:00 16.9 21 Sur 43 Sudoeste 0.8 -- -- 87
2019-08-09 18:00:00 19.1 28 Sudoeste 54 Sudoeste 0.2 -- -- 79
2019-08-09 17:00:00 21.6 28 Sudoeste 60 Sudoeste 0 -- -- 71
2019-08-09 16:00:00 24.7 32 Sudoeste 45 Sudoeste 0 -- -- 62
2019-08-09 15:00:00 22 21 Sudoeste 44 Sudoeste 0.6 -- -- 84
2019-08-09 14:00:00 23.4 33 Sudoeste 42 Sudoeste 0 -- -- 65
2019-08-09 13:00:00 22.8 27 Oeste 43 Sudoeste 0 -- -- 67
2019-08-09 12:00:00 23.3 30 Oeste 42 Oeste 0 -- -- 67
2019-08-09 11:00:00 24.7 39 Sudoeste 54 Sudoeste 0 -- -- 63
2019-08-09 10:00:00 22.4 34 Sudoeste 55 Sudoeste 0 -- -- 71
2019-08-09 09:00:00 21.7 41 Sudoeste 56 Sudoeste 0 -- -- 73
2019-08-09 08:00:00 20.3 32 Sudoeste 47 Sudoeste 0 -- -- 78
2019-08-09 07:00:00 19.9 23 Sur 34 Sur 0 -- -- 77
2019-08-09 06:00:00 20.2 23 Sur 38 Sudoeste 0 -- -- 74
2019-08-09 05:00:00 20.5 25 Sudoeste 37 Sudoeste 0 -- -- 73
2019-08-09 04:00:00 20.6 15 Sudoeste 24 Sur 0 -- -- 70
2019-08-09 03:00:00 20.8 7 Sur 17 Sudoeste 0 -- -- 68
2019-08-09 02:00:00 21.6 13 Sur 18 Sudoeste 0 -- -- 65
2019-08-09 01:00:00 21.7 14 Sudoeste 20 Sudoeste 0 -- -- 63
2019-08-09 00:00:00 23.5 16 Sudoeste 24 Sudoeste 0 -- -- 56
2019-08-08 23:00:00 24.8 17 Sudoeste 37 Sudoeste 0 -- -- 52
2019-08-08 22:00:00 26.4 28 Sudoeste 45 Sudoeste 0 -- -- 46
2019-08-08 21:00:00 28.1 27 Sudoeste 55 Sudoeste 0 -- -- 41
2019-08-08 20:00:00 29.7 28 Sudoeste 50 Sudoeste 0 -- -- 36
2019-08-08 19:00:00 30.4 35 Sudoeste 50 Sudoeste 0 -- -- 35
2019-08-08 18:00:00 31.5 32 Sudoeste 53 Sudoeste 0 -- -- 33
2019-08-08 17:00:00 31.3 34 Sur 50 Sur 0 -- -- 29
2019-08-08 16:00:00 31.1 30 Sudoeste 47 Sudoeste 0 -- -- 36
2019-08-08 15:00:00 30.3 30 Sudoeste 44 Sudoeste 0 -- -- 36
2019-08-08 14:00:00 29.5 25 Sudoeste 38 Sudoeste 0 -- -- 41
2019-08-08 13:00:00 28.4 18 Sudoeste 36 Sudoeste 0 -- -- 44
2019-08-08 12:00:00 27.2 18 Sudoeste 35 Sudoeste 0 -- -- 47
2019-08-08 11:00:00 25.7 18 Sudoeste 28 Sur 0 -- -- 50
2019-08-08 10:00:00 23.2 21 Sur 31 Sur 0 -- -- 55
2019-08-08 09:00:00 21 16 Sur 25 Sur 0 -- -- 62
2019-08-08 08:00:00 19.6 10 Sur 15 Sur 0 -- -- 64
2019-08-08 07:00:00 18.4 8 Sudeste 10 Sudeste 0 -- -- 67
2019-08-08 06:00:00 18.6 2 Sur 19 Sudoeste 0 -- -- 70
2019-08-08 05:00:00 19.9 15 Sudoeste 22 Sur 0 -- -- 69
2019-08-08 04:00:00 20.4 14 Sudoeste 19 Sur 0 -- -- 61
2019-08-08 03:00:00 20.5 11 Sudoeste 21 Sudoeste 0 -- -- 63
2019-08-08 02:00:00 20 17 Sudoeste 23 Sudoeste 0 -- -- 65
2019-08-08 01:00:00 19.1 6 Oeste 14 Sudoeste 0 -- -- 62
2019-08-08 00:00:00 19.8 0 Calma 11 Sudoeste 0 -- -- 65
2019-08-07 23:00:00 19.7 3 Oeste 10 Noroeste 0 -- -- 64
2019-08-07 22:00:00 21.8 8 Noroeste 20 Sudoeste 0 -- -- 57
2019-08-07 21:00:00 23.9 14 Sudoeste 27 Sudoeste 0 -- -- 48
2019-08-07 20:00:00 25 19 Sudoeste 30 Sudoeste 0 -- -- 45
2019-08-07 19:00:00 24.8 23 Sudoeste 37 Sudoeste 0 -- -- 42
2019-08-07 18:00:00 25.6 24 Sudoeste 34 Sudoeste 0 -- -- 43
2019-08-07 17:00:00 25.7 26 Sudoeste 44 Sur 0 -- -- 39
2019-08-07 16:00:00 26.8 21 Sur 29 Sur 0 -- -- 37
2019-08-07 15:00:00 26.2 17 Sudoeste 31 Sur 0 -- -- 40
2019-08-07 14:00:00 26.2 14 Sudoeste 28 Sur 0 -- -- 44
2019-08-07 13:00:00 25.6 10 Sur 19 Sur 0 -- -- 42
2019-08-07 12:00:00 -- 4 Oeste 10 Oeste 0 -- -- --
2019-08-07 11:00:00 24.5 5 Oeste 15 Oeste 0 -- -- 48
2019-08-07 10:00:00 23 9 Oeste 17 Sudoeste 0 -- -- 54
2019-08-07 09:00:00 20.6 14 Oeste 18 Oeste 0 -- -- 64
2019-08-07 08:00:00 19.3 8 Oeste 12 Oeste 0 -- -- 66
2019-08-07 07:00:00 17.2 6 Sudoeste 9 Sudoeste 0 -- -- 72
2019-08-07 06:00:00 18.7 9 Sudoeste 10 Sudoeste 0 -- -- 66
2019-08-07 05:00:00 19.9 3 Oeste 11 Sudoeste 0 -- -- 62
2019-08-07 04:00:00 20.6 5 Sur 11 Oeste 0 -- -- 59
2019-08-07 03:00:00 21.3 9 Oeste 13 Oeste 0 -- -- 57
2019-08-07 02:00:00 22.4 9 Oeste 17 Oeste 0 -- -- 50
2019-08-07 01:00:00 23.4 14 Oeste 19 Oeste 0 -- -- 48
2019-08-07 00:00:00 23.9 13 Oeste 20 Oeste 0 -- -- 47
2019-08-06 23:00:00 24.6 15 Oeste 31 Noroeste 0 -- -- 43
2019-08-06 22:00:00 26.1 22 Oeste 32 Oeste 0 -- -- 39
2019-08-06 21:00:00 28.2 23 Noroeste 32 Oeste 0 -- -- 32
2019-08-06 20:00:00 30.1 19 Noroeste 25 Oeste 0 -- -- 29
2019-08-06 19:00:00 31.7 17 Oeste 27 Sudoeste 0 -- -- 28
2019-08-06 18:00:00 32.6 16 Oeste 35 Sudoeste 0 -- -- 27
2019-08-06 17:00:00 32.7 20 Oeste 35 Sudoeste 0 -- -- 26
2019-08-06 16:00:00 32.4 15 Oeste 25 Oeste 0 -- -- 29
2019-08-06 15:00:00 31 12 Sudoeste 22 Sudoeste 0 -- -- 30
2019-08-06 14:00:00 30.7 3 Nordeste 13 Oeste 0 -- -- 34
2019-08-06 13:00:00 28.8 5 Noroeste 13 Noroeste 0 -- -- 39
2019-08-06 12:00:00 27.2 6 Noroeste 12 Noroeste 0 -- -- 44
2019-08-06 11:00:00 24.6 5 Sudoeste 13 Oeste 0 -- -- 51
2019-08-06 10:00:00 22.4 9 Sudoeste 21 Sudoeste 0 -- -- 56
2019-08-06 09:00:00 20.2 12 Sudoeste 17 Sudoeste 0 -- -- 61
2019-08-06 08:00:00 17.2 10 Sur 14 Sudoeste 0 -- -- 68
2019-08-06 07:00:00 16.5 11 Sudoeste 24 Sudoeste 0 -- -- 69
2019-08-06 06:00:00 17.6 15 Sudoeste 23 Sudoeste 0 -- -- 62
2019-08-06 05:00:00 18.2 16 Sudoeste 22 Sur 0 -- -- 58
2019-08-06 04:00:00 18.3 14 Sudoeste 20 Sudoeste 0 -- -- 54
2019-08-06 03:00:00 19.1 12 Sudoeste 15 Sudoeste 0 -- -- 50
2019-08-06 02:00:00 19.7 8 Sur 14 Sur 0 -- -- 44
2019-08-06 01:00:00 20.2 7 Sur 11 Sudoeste 0 -- -- 44
2019-08-06 00:00:00 21.6 9 Sudoeste 12 Oeste 0 -- -- 41
2019-08-05 23:00:00 23 9 Oeste 13 Oeste 0 -- -- 37
2019-08-05 22:00:00 26 12 Oeste 19 Noroeste 0 -- -- 35
2019-08-05 21:00:00 30.5 10 Noroeste 28 Sudoeste 0 -- -- 31
2019-08-05 20:00:00 32.5 18 Oeste 33 Sudoeste 0 -- -- 20
2019-08-05 19:00:00 33.4 19 Sudoeste 35 Oeste 0 -- -- 19
2019-08-05 18:00:00 33.8 17 Oeste 33 Sudoeste 0 -- -- 16
2019-08-05 17:00:00 33.6 12 Sudoeste 33 Oeste 0 -- -- 20
2019-08-05 16:00:00 32.5 19 Sudoeste 37 Oeste 0 -- -- 22
2019-08-05 15:00:00 31.5 14 Sudoeste 28 Oeste 0 -- -- 23
2019-08-05 14:00:00 30.4 14 Oeste 22 Sudoeste 0 -- -- 29
2019-08-05 13:00:00 28.8 5 Noroeste 13 Oeste 0 -- -- 39
2019-08-05 12:00:00 26.9 6 Oeste 12 Noroeste 0 -- -- 44
2019-08-05 11:00:00 24.5 5 Noroeste 10 Noroeste 0 -- -- 51
2019-08-05 10:00:00 22.8 4 Noroeste 8 Sudoeste 0 -- -- 53
2019-08-05 09:00:00 18.6 8 Sudoeste 13 Sudoeste 0 -- -- 65
2019-08-05 08:00:00 15.6 8 Sudoeste 11 Sudoeste 0 -- -- 78
2019-08-05 07:00:00 14.6 10 Sudoeste 13 Sudoeste 0 -- -- 79
2019-08-05 06:00:00 15.6 12 Sudoeste 15 Sudoeste 0 -- -- 72
2019-08-05 05:00:00 16.6 14 Sudoeste 21 Sudoeste 0 -- -- 65
2019-08-05 04:00:00 17.1 12 Sudoeste 15 Sudoeste 0 -- -- 58
2019-08-05 03:00:00 17.9 13 Sudoeste 15 Sudoeste 0 -- -- 55
2019-08-05 02:00:00 18.9 11 Sudoeste 13 Sudoeste 0 -- -- 50
2019-08-05 01:00:00 20 6 Sur 9 Sudoeste 0 -- -- 42
2019-08-05 00:00:00 21.8 8 Sudoeste 14 Oeste 0 -- -- 38
2019-08-04 23:00:00 23.6 10 Oeste 14 Oeste 0 -- -- 35
2019-08-04 22:00:00 25.4 10 Oeste 21 Oeste 0 -- -- 31
2019-08-04 21:00:00 30.6 17 Oeste 23 Oeste 0 -- -- 26
2019-08-04 20:00:00 33.1 19 Oeste 32 Oeste 0 -- -- 22
2019-08-04 19:00:00 34 19 Oeste 36 Sudoeste 0 -- -- 22
2019-08-04 18:00:00 33.8 10 Sudoeste 37 Sudoeste 0 -- -- 21
2019-08-04 17:00:00 33.6 17 Sudoeste 30 Sudoeste 0 -- -- 22
2019-08-04 16:00:00 32.3 13 Sudoeste 28 Sudoeste 0 -- -- 24
2019-08-04 15:00:00 32 12 Sudoeste 25 Oeste 0 -- -- 27
2019-08-04 14:00:00 30.8 8 Sur 16 Sur 0 -- -- 32
2019-08-04 13:00:00 29.3 7 Noroeste 17 Sudoeste 0 -- -- 39
2019-08-04 12:00:00 27.8 10 Oeste 18 Oeste 0 -- -- 44
2019-08-04 11:00:00 25.3 7 Sudoeste 14 Oeste 0 -- -- 49
2019-08-04 10:00:00 23.7 10 Oeste 16 Oeste 0 -- -- 54
2019-08-04 09:00:00 20.2 13 Sudoeste 30 Sudoeste 0 -- -- 64
2019-08-04 08:00:00 17.3 13 Sudoeste 17 Sudoeste 0 -- -- 72
2019-08-04 07:00:00 17.3 12 Sur 22 Sudoeste 0 -- -- 69
2019-08-04 06:00:00 17.4 14 Sudoeste 19 Sudoeste 0 -- -- 69
2019-08-04 05:00:00 18.1 14 Sudoeste 23 Sudoeste 0 -- -- 64
2019-08-04 04:00:00 19.3 18 Sudoeste 26 Sudoeste 0 -- -- 58
2019-08-04 03:00:00 20.2 17 Sudoeste 22 Sudoeste 0 -- -- 51
2019-08-04 02:00:00 20.5 15 Sudoeste 17 Sudoeste 0 -- -- 47
2019-08-04 01:00:00 22.1 10 Oeste 22 Oeste 0 -- -- 40
2019-08-04 00:00:00 22.5 10 Oeste 15 Oeste 0 -- -- 37
2019-08-03 23:00:00 24.8 12 Oeste 18 Oeste 0 -- -- 33
2019-08-03 22:00:00 26.9 12 Sudoeste 15 Oeste 0 -- -- 29
2019-08-03 21:00:00 31.3 12 Oeste 20 Oeste 0 -- -- 24
2019-08-03 20:00:00 34.2 8 Oeste 25 Sudoeste 0 -- -- 18
2019-08-03 19:00:00 34.2 16 Oeste 34 Sudoeste 0 -- -- 13
2019-08-03 18:00:00 34.2 18 Sudoeste 43 Sudoeste 0 -- -- 18
2019-08-03 17:00:00 34.1 17 Sudoeste 45 Sudoeste 0 -- -- 17
2019-08-03 16:00:00 34.1 15 Oeste 30 Sudoeste 0 -- -- 17
2019-08-03 15:00:00 32.8 15 Sudoeste 32 Oeste 0 -- -- 17
2019-08-03 14:00:00 32 18 Oeste 32 Oeste 0 -- -- 20
2019-08-03 13:00:00 31 11 Oeste 20 Oeste 0 -- -- 25
2019-08-03 12:00:00 28.6 7 Oeste 15 Oeste 0 -- -- 36
2019-08-03 11:00:00 25.7 9 Oeste 15 Sudoeste 0 -- -- 41
2019-08-03 10:00:00 22.5 8 Sudoeste 12 Sudoeste 0 -- -- 47
2019-08-03 09:00:00 19 9 Sudoeste 12 Sudoeste 0 -- -- 51
2019-08-03 08:00:00 15.8 3 Sur 10 Sudeste 0 -- -- 54
2019-08-03 07:00:00 13.6 5 Sur 8 Sudeste 0 -- -- 58
2019-08-03 06:00:00 13.8 7 Sudoeste 10 Oeste 0 -- -- 61
2019-08-03 05:00:00 14.7 6 Oeste 15 Sudoeste 0 -- -- 55
2019-08-03 04:00:00 16.7 5 Este -- -- 0 -- -- 54
2019-08-03 03:00:00 18.3 4 Nordeste 10 Nordeste 0 -- -- 45
2019-08-03 02:00:00 20.8 7 Nordeste 12 Nordeste 0 -- -- 38
2019-08-03 01:00:00 19.7 3 Oeste 8 Norte 0 -- -- 38
2019-08-03 00:00:00 21 7 Norte 10 Oeste 0 -- -- 35
2019-08-02 23:00:00 22.9 5 Noroeste 12 Noroeste 0 -- -- 33
2019-08-02 22:00:00 25 10 Noroeste 13 Noroeste 0 -- -- 31
2019-08-02 21:00:00 30.6 9 Noroeste 18 Oeste 0 -- -- 22
2019-08-02 20:00:00 33.4 9 Oeste 24 Oeste 0 -- -- 17
2019-08-02 19:00:00 34.1 14 Noroeste 26 Oeste 0 -- -- 18
2019-08-02 18:00:00 33.9 10 Noroeste 19 Oeste 0 -- -- 18
2019-08-02 17:00:00 33 11 Noroeste 27 Oeste 0 -- -- 19
2019-08-02 16:00:00 33 11 Sudoeste 25 Oeste 0 -- -- 18
2019-08-02 15:00:00 32.2 8 Norte 24 Noroeste 0 -- -- 21
2019-08-02 14:00:00 30.4 6 Nordeste 18 Nordeste 0 -- -- 32
2019-08-02 13:00:00 28.1 8 Norte 22 Norte 0 -- -- 43
2019-08-02 12:00:00 24.9 6 Norte 13 Norte 0 -- -- 52
2019-08-02 11:00:00 22.5 5 Este 10 Nordeste 0 -- -- 60
2019-08-02 10:00:00 20.6 3 Nordeste 9 Nordeste 0 -- -- 66
2019-08-02 09:00:00 17 6 Norte 8 Norte 0 -- -- 79
2019-08-02 08:00:00 13.7 0 Calma 6 Oeste 0 -- -- 82
2019-08-02 07:00:00 11.2 5 Oeste 7 Sudoeste 0 -- -- 87
2019-08-02 06:00:00 12.4 2 Oeste 4 Noroeste 0 -- -- 88
2019-08-02 05:00:00 13.7 4 Noroeste 11 Norte 0 -- -- 87
2019-08-02 04:00:00 15.3 10 Norte 13 Norte 0 -- -- 83
2019-08-02 03:00:00 15.5 10 Sudoeste 15 Norte 0 -- -- 64
2019-08-02 02:00:00 18.4 7 Nordeste 14 Nordeste 0 -- -- 59
2019-08-02 01:00:00 20.1 12 Nordeste 16 Norte 0 -- -- 48
2019-08-02 00:00:00 19 2 Norte 8 Oeste 0 -- -- 40
2019-08-01 23:00:00 20.9 8 Oeste 12 Oeste 0 -- -- 35
2019-08-01 22:00:00 23.7 8 Noroeste 20 Noroeste 0 -- -- 33
2019-08-01 21:00:00 28.9 10 Noroeste 21 Noroeste 0 -- -- 25
2019-08-01 20:00:00 30.6 13 Noroeste 23 Noroeste 0 -- -- 24
2019-08-01 19:00:00 31.3 14 Noroeste 26 Oeste 0 -- -- 23
2019-08-01 18:00:00 32.2 18 Oeste 35 Oeste 0 -- -- 22
2019-08-01 17:00:00 30.7 13 Sudoeste 28 Oeste 0 -- -- 23
2019-08-01 16:00:00 30.8 12 Oeste 26 Oeste 0 -- -- 24
2019-08-01 15:00:00 29.2 15 Sudoeste 24 Oeste 0 -- -- 28
2019-08-01 14:00:00 28.1 12 Oeste 25 Oeste 0 -- -- 30
2019-08-01 13:00:00 27.4 12 Oeste 25 Oeste 0 -- -- 36
2019-08-01 12:00:00 24.2 15 Oeste 23 Oeste 0 -- -- 47
2019-08-01 11:00:00 21.4 13 Oeste 20 Oeste 0 -- -- 55
2019-08-01 10:00:00 18.9 12 Sudoeste 18 Sudoeste 0 -- -- 63
2019-08-01 09:00:00 16.6 10 Sudoeste 16 Sudoeste 0 -- -- 71
2019-08-01 08:00:00 13.9 12 Sudoeste 14 Sudoeste 0 -- -- 80
2019-08-01 07:00:00 13.2 4 Oeste 17 Oeste 0 -- -- 79
2019-08-01 06:00:00 14.1 11 Oeste 13 Oeste 0 -- -- 74
2019-08-01 05:00:00 15 9 Noroeste 13 Oeste 0 -- -- 68
2019-08-01 04:00:00 16.7 5 Oeste 10 Oeste 0 -- -- 60
2019-08-01 03:00:00 18.2 7 Oeste 10 Oeste 0 -- -- 55
2019-08-01 02:00:00 19 14 Noroeste 18 Oeste 0 -- -- 52
2019-08-01 01:00:00 20.4 0 Calma 12 Norte 0 -- -- 50
2019-08-01 00:00:00 21.9 7 Norte 19 Norte 0 -- -- 44
2019-07-31 23:00:00 23.4 15 Norte 22 Norte 0 -- -- 40
2019-07-31 22:00:00 25.3 17 Norte 23 Norte 0 -- -- 35
2019-07-31 21:00:00 26.9 14 Noroeste 24 Noroeste 0 -- -- 29
2019-07-31 20:00:00 28.2 18 Noroeste 26 Noroeste 0 -- -- 30
2019-07-31 19:00:00 29.1 19 Noroeste 28 Noroeste 0 -- -- 29
2019-07-31 18:00:00 31 19 Noroeste 32 Noroeste 0 -- -- 28
2019-07-31 17:00:00 31.3 16 Noroeste 28 Norte 0 -- -- 28
2019-07-31 16:00:00 29.8 10 Nordeste 25 Nordeste 0 -- -- 31
2019-07-31 15:00:00 28.7 8 Noroeste 21 Norte 0 -- -- 34
2019-07-31 14:00:00 26.6 10 Norte 22 Norte 0 -- -- 36
2019-07-31 13:00:00 23.3 14 Norte 23 Norte 0 -- -- 39
2019-07-31 12:00:00 20.6 13 Norte 20 Noroeste 0 -- -- 46
2019-07-31 11:00:00 18 10 Norte 15 Nordeste 0 -- -- 53
2019-07-31 10:00:00 15.9 10 Norte 17 Norte 0 -- -- 60
2019-07-31 09:00:00 13.2 11 Norte 15 Norte 0 -- -- 70
2019-07-31 08:00:00 9.4 0 Calma 3 Norte 0 -- -- 77
2019-07-31 07:00:00 8 0 Calma 6 Noroeste 0 -- -- 78
2019-07-31 06:00:00 9.4 2 Sur 7 Norte 0 -- -- 80
2019-07-31 05:00:00 11.3 5 Norte 11 Nordeste 0 -- -- 73
2019-07-31 04:00:00 10.7 3 Noroeste 6 Norte 0 -- -- 70
2019-07-31 03:00:00 13.7 6 Norte 11 Norte 0 -- -- 61
2019-07-31 02:00:00 14.3 8 Norte 11 Norte 0 -- -- 56
2019-07-31 01:00:00 15.9 9 Nordeste 20 Nordeste 0 -- -- 49
2019-07-31 00:00:00 17.6 12 Norte 17 Norte 0 -- -- 39
2019-07-30 23:00:00 19.2 9 Norte 13 Norte 0 -- -- 35
2019-07-30 22:00:00 21.1 11 Norte 26 Norte 0 -- -- 31
2019-07-30 21:00:00 24.1 17 Norte 29 Norte 0 -- -- 28
2019-07-30 20:00:00 24.9 14 Norte 23 Norte 0 -- -- 27
2019-07-30 19:00:00 25.9 10 Noroeste 30 Noroeste 0 -- -- 26
2019-07-30 18:00:00 26.5 11 Noroeste 22 Noroeste 0 -- -- 26
2019-07-30 17:00:00 25.1 8 Norte 22 Nordeste 0 -- -- 28
2019-07-30 16:00:00 24 11 Norte 26 Norte 0 -- -- 28
2019-07-30 15:00:00 23 6 Sudeste 19 Norte 0 -- -- 32
2019-07-30 14:00:00 22.2 4 Sudoeste 18 Oeste 0 -- -- 34
2019-07-30 13:00:00 20.9 6 Noroeste 15 Oeste 0 -- -- 37
2019-07-30 12:00:00 19.3 4 Este 12 Nordeste 0 -- -- 43
2019-07-30 11:00:00 17.7 6 Noroeste 15 Noroeste 0 -- -- 49
2019-07-30 10:00:00 15.9 11 Noroeste 18 Noroeste 0 -- -- 54
2019-07-30 09:00:00 13.7 8 Oeste 11 Oeste 0 -- -- 61
2019-07-30 08:00:00 9.9 6 Sudoeste 9 Sur 0 -- -- 75
2019-07-30 07:00:00 8 8 Sudoeste 10 Oeste 0 -- -- 80
2019-07-30 06:00:00 9.2 10 Oeste 12 Oeste 0 -- -- 75
2019-07-30 05:00:00 10.4 10 Oeste 15 Oeste 0 -- -- 71
2019-07-30 04:00:00 10.7 5 Sudoeste 11 Oeste 0 -- -- 66
2019-07-30 03:00:00 11.6 8 Oeste 11 Sudoeste 0 -- -- 62
2019-07-30 02:00:00 12.5 6 Oeste 15 Oeste 0 -- -- 61
2019-07-30 01:00:00 14.3 13 Oeste 17 Oeste 0 -- -- 53
2019-07-30 00:00:00 15.8 8 Noroeste 21 Oeste 0 -- -- 51
2019-07-29 23:00:00 18.1 12 Oeste 33 Oeste 0 -- -- 43
2019-07-29 22:00:00 20.9 24 Oeste 34 Oeste 0 -- -- 35
2019-07-29 21:00:00 23.4 26 Oeste 42 Oeste 0 -- -- 31
2019-07-29 20:00:00 25.6 27 Oeste 43 Sudoeste 0 -- -- 28
2019-07-29 19:00:00 26.8 22 Oeste 50 Oeste 0 -- -- 23
2019-07-29 18:00:00 27.6 24 Oeste 44 Oeste 0 -- -- 25
2019-07-29 17:00:00 27.5 24 Oeste 43 Sudoeste 0 -- -- 27
2019-07-29 16:00:00 26.9 25 Sudoeste 47 Oeste 0 -- -- 28
2019-07-29 15:00:00 25.3 25 Sudoeste 39 Oeste 0 -- -- 39
2019-07-29 14:00:00 24.1 19 Sudoeste 33 Oeste 0 -- -- 46
2019-07-29 13:00:00 23.3 17 Sudoeste 30 Sudoeste 0 -- -- 48
2019-07-29 12:00:00 22.6 14 Oeste 26 Oeste 0 -- -- 45
2019-07-29 11:00:00 20.7 17 Sudoeste 26 Sudoeste 0 -- -- 45
2019-07-29 10:00:00 19.4 14 Sudoeste 25 Sudoeste 0 -- -- 49
2019-07-29 09:00:00 17.1 17 Sudoeste 24 Sudoeste 0 -- -- 55
2019-07-29 08:00:00 14.7 11 Sur 15 Sur 0 -- -- 69
2019-07-29 07:00:00 13.9 12 Sur 20 Sur 0 -- -- 74
2019-07-29 06:00:00 14.5 12 Sur 18 Sudoeste 0 -- -- 71
2019-07-29 05:00:00 14.1 13 Sudoeste 23 Sudoeste 0 -- -- 60
2019-07-29 04:00:00 14.4 12 Sudoeste 18 Sudoeste 0 -- -- 53
2019-07-29 03:00:00 15.1 13 Sudoeste 17 Sudoeste 0 -- -- 47
2019-07-29 02:00:00 14.7 6 Sudoeste 10 Sudoeste 0 -- -- 44
2019-07-29 01:00:00 15.5 7 Sudoeste 12 Sur 0 -- -- 45
2019-07-29 00:00:00 17.9 5 Sudeste 7 Sudeste 0 -- -- 36
2019-07-28 23:00:00 19.2 3 Norte 7 Noroeste 0 -- -- 38
2019-07-28 22:00:00 22.7 5 Nordeste 8 Nordeste 0 -- -- 28
2019-07-28 21:00:00 26.5 4 Nordeste 12 Noroeste 0 -- -- 23
2019-07-28 20:00:00 28.6 4 Noroeste 16 Noroeste 0 -- -- 20
2019-07-28 19:00:00 28.3 10 Oeste 19 Oeste 0 -- -- 21
2019-07-28 18:00:00 27.6 7 Sur 23 Sudoeste 0 -- -- 22
2019-07-28 17:00:00 27.8 10 Sudoeste 31 Sudoeste 0 -- -- 21
2019-07-28 16:00:00 26.7 9 Noroeste 20 Oeste 0 -- -- 27
2019-07-28 15:00:00 25.7 7 Sudoeste 21 Sudoeste 0 -- -- 31
2019-07-28 14:00:00 23.8 9 Noroeste 21 Noroeste 0 -- -- 34
2019-07-28 13:00:00 22.2 6 Este 20 Norte 0 -- -- 41
2019-07-28 12:00:00 20.9 7 Nordeste 19 Nordeste 0 -- -- 45
2019-07-28 11:00:00 18.7 13 Nordeste 22 Nordeste 0 -- -- 54
2019-07-28 10:00:00 16.1 12 Nordeste 18 Nordeste 0 -- -- 66
2019-07-28 09:00:00 13.3 9 Norte 11 Norte 0 -- -- 76
2019-07-28 08:00:00 11.7 0 Calma 3 Norte 0 -- -- 81
2019-07-28 07:00:00 8.5 0 Calma 8 Sudeste 0 -- -- 89
2019-07-28 06:00:00 10.1 4 Nordeste 6 Norte 0 -- -- 89
2019-07-28 05:00:00 9.6 5 Norte 7 Noroeste 0 -- -- 84
2019-07-28 04:00:00 12.3 5 Nordeste 13 Norte 0 -- -- 78
2019-07-28 03:00:00 12.4 8 Norte 10 Norte 0 -- -- 77
2019-07-28 02:00:00 14.3 5 Nordeste 16 Nordeste 0 -- -- 72
2019-07-28 01:00:00 14.4 10 Nordeste 26 Nordeste 0 -- -- 71
2019-07-28 00:00:00 16.1 18 Nordeste 27 Nordeste 0 -- -- 67
2019-07-27 23:00:00 17.5 14 Nordeste 26 Norte 0 -- -- 66
2019-07-26 12:00:00 -- -- -- -- -- -- -- -- --
2019-07-26 11:00:00 -- -- -- -- -- -- -- -- --
2019-07-26 10:00:00 -- -- -- -- -- -- -- -- --
2019-07-26 09:00:00 -- -- -- -- -- -- -- -- --
2019-07-26 08:00:00 16.6 14 Oeste 20 Oeste 0 -- -- 79
2019-07-26 07:00:00 17.5 16 Oeste 21 Oeste 0 -- -- 77
2019-07-26 06:00:00 18.3 12 Oeste 19 Oeste 0 -- -- 79
2019-07-26 05:00:00 18.7 14 Oeste 35 Oeste 0 -- -- 75
2019-07-26 04:00:00 19 18 Oeste 28 Oeste 0 -- -- 75
2019-07-26 03:00:00 19.9 12 Oeste 36 Oeste 0 -- -- 72
2019-07-26 02:00:00 21.2 20 Oeste 32 Oeste 0 -- -- 67
2019-07-26 01:00:00 22.2 24 Oeste 35 Oeste 0 -- -- 62
2019-07-26 00:00:00 23.3 8 Oeste 26 Oeste 0 -- -- 52